createdAt,value
2023-02-17T00:01:56.416Z,6.10
2023-02-17T00:04:44.151Z,9.40
2023-02-17T00:07:35.236Z,9.97
2023-02-17T00:10:22.834Z,21.03
2023-02-17T00:13:10.768Z,8.77
2023-02-17T00:15:58.887Z,9.00
2023-02-17T00:18:47.528Z,6.07
2023-02-17T00:21:35.167Z,9.60
2023-02-17T00:24:25.471Z,8.40
2023-02-17T00:27:13.226Z,12.90
2023-02-17T00:30:01.410Z,9.07
2023-02-17T00:32:49.774Z,9.50
2023-02-17T00:35:41.268Z,8.07
2023-02-17T00:38:30.216Z,7.83
2023-02-17T00:41:19.551Z,16.20
2023-02-17T00:44:07.135Z,11.93
2023-02-17T00:46:54.752Z,13.77
2023-02-17T00:49:42.363Z,10.60
2023-02-17T00:52:30.022Z,11.83
2023-02-17T00:55:18.028Z,9.23
2023-02-17T00:58:05.696Z,12.27
2023-02-17T01:00:55.162Z,14.23
2023-02-17T01:03:44.134Z,9.37
2023-02-17T01:06:36.463Z,12.47
2023-02-17T01:09:24.493Z,17.50
2023-02-17T01:12:13.094Z,18.97
2023-02-17T01:15:01.427Z,8.67
2023-02-17T01:17:49.107Z,16.87
2023-02-17T01:20:38.996Z,12.00
2023-02-17T01:23:26.484Z,15.60
2023-02-17T01:26:21.718Z,15.40
2023-02-17T01:29:09.740Z,12.10
2023-02-17T01:31:57.757Z,12.90
2023-02-17T01:34:45.507Z,8.60
2023-02-17T01:37:36.485Z,7.90
2023-02-17T01:40:24.264Z,16.77
2023-02-17T01:43:18.034Z,9.47
2023-02-17T01:46:08.114Z,13.50
2023-02-17T01:48:55.841Z,13.20
2023-02-17T01:51:50.256Z,10.80
2023-02-17T01:54:52.923Z,10.33
2023-02-17T01:57:43.252Z,10.90
2023-02-17T02:00:35.620Z,11.57
2023-02-17T02:03:23.468Z,12.60
2023-02-17T02:06:20.796Z,11.30
2023-02-17T02:09:17.058Z,8.60
2023-02-17T02:12:30.918Z,8.47
2023-02-17T02:15:25.211Z,9.70
2023-02-17T02:18:36.247Z,8.00
2023-02-17T02:21:37.793Z,7.90
2023-02-17T02:24:52.149Z,8.67
2023-02-17T02:28:36.521Z,10.53
2023-02-17T02:32:14.921Z,9.03
2023-02-17T02:35:44.258Z,17.27
2023-02-17T02:39:02.494Z,15.23
2023-02-17T02:42:23.008Z,11.97
2023-02-17T02:45:12.157Z,11.30
2023-02-17T02:47:59.793Z,11.00
2023-02-17T02:51:03.715Z,11.30
2023-02-17T02:54:28.600Z,9.53
2023-02-17T02:57:56.120Z,11.23
2023-02-17T03:01:01.426Z,12.47
2023-02-17T03:04:06.473Z,8.53
2023-02-17T03:07:05.980Z,9.10
2023-02-17T03:09:58.026Z,11.37
2023-02-17T03:12:45.828Z,14.67
2023-02-17T03:15:35.679Z,19.53
2023-02-17T03:18:23.162Z,7.70
2023-02-17T03:21:16.375Z,7.77
2023-02-17T03:24:04.994Z,10.07
2023-02-17T03:26:52.977Z,19.95
2023-02-17T03:29:40.884Z,11.40
2023-02-17T03:32:28.532Z,9.83
2023-02-17T03:35:16.321Z,9.53
2023-02-17T03:38:04.604Z,16.67
2023-02-17T03:40:53.991Z,12.93
2023-02-17T03:43:41.593Z,12.23
2023-02-17T03:46:29.980Z,14.70
2023-02-17T03:49:17.623Z,16.30
2023-02-17T03:52:05.798Z,8.83
2023-02-17T03:54:53.389Z,11.07
2023-02-17T03:57:40.967Z,8.87
2023-02-17T04:00:28.542Z,13.57
2023-02-17T04:03:16.277Z,18.27
2023-02-17T04:06:04.917Z,9.13
2023-02-17T04:08:52.709Z,11.37
2023-02-17T04:11:40.346Z,16.53
2023-02-17T04:14:27.892Z,15.03
2023-02-17T04:17:15.700Z,8.83
2023-02-17T04:20:08.061Z,9.63
2023-02-17T04:22:55.784Z,11.33
2023-02-17T04:25:44.284Z,10.70
2023-02-17T04:28:32.051Z,10.30
2023-02-17T04:31:19.687Z,19.17
2023-02-17T04:34:07.257Z,7.53
2023-02-17T04:36:55.162Z,11.00
2023-02-17T04:39:42.900Z,6.13
2023-02-17T04:42:30.441Z,11.97
2023-02-17T04:45:18.393Z,10.73
2023-02-17T04:48:06.295Z,9.00
2023-02-17T04:50:54.094Z,8.50
2023-02-17T04:53:41.814Z,8.53
2023-02-17T04:56:29.566Z,40.93
2023-02-17T04:59:17.054Z,8.17
2023-02-17T05:02:05.167Z,10.17
2023-02-17T05:04:53.805Z,13.50
2023-02-17T05:07:43.329Z,9.50
2023-02-17T05:10:31.375Z,7.47
2023-02-17T05:13:19.871Z,15.10
2023-02-17T05:16:07.993Z,14.87
2023-02-17T05:18:55.954Z,10.33
2023-02-17T05:21:43.639Z,7.73
2023-02-17T05:24:31.239Z,14.83
2023-02-17T05:27:19.747Z,13.40
2023-02-17T05:30:07.967Z,10.37
2023-02-17T05:32:56.868Z,10.77
2023-02-17T05:35:44.879Z,13.57
2023-02-17T05:38:33.005Z,11.70
2023-02-17T05:41:20.668Z,17.70
2023-02-17T05:44:08.896Z,6.80
2023-02-17T05:46:56.920Z,13.40
2023-02-17T05:49:44.585Z,10.53
2023-02-17T05:52:32.455Z,21.30
2023-02-17T05:55:20.269Z,10.47
2023-02-17T05:58:07.811Z,11.17
2023-02-17T06:00:55.418Z,12.83
2023-02-17T06:03:43.320Z,11.57
2023-02-17T06:06:30.999Z,18.07
2023-02-17T06:09:18.955Z,11.63
2023-02-17T06:12:06.827Z,9.93
2023-02-17T06:14:54.449Z,20.23
2023-02-17T06:17:42.300Z,8.87
2023-02-17T06:20:29.971Z,14.80
2023-02-17T06:23:18.115Z,18.73
2023-02-17T06:26:06.323Z,9.63
2023-02-17T06:28:54.535Z,16.70
2023-02-17T06:31:43.369Z,12.40
2023-02-17T06:34:31.284Z,10.67
2023-02-17T06:37:18.844Z,10.70
2023-02-17T06:40:07.242Z,13.63
2023-02-17T06:42:54.805Z,11.47
2023-02-17T06:45:42.397Z,9.80
2023-02-17T06:48:33.256Z,21.63
2023-02-17T06:51:20.871Z,11.37
2023-02-17T06:54:08.589Z,13.53
2023-02-17T06:56:56.269Z,13.87
2023-02-17T06:59:43.891Z,12.83
2023-02-17T07:02:31.735Z,16.73
2023-02-17T07:05:19.812Z,8.23
2023-02-17T07:08:07.432Z,11.03
2023-02-17T07:10:55.514Z,11.77
2023-02-17T07:13:44.352Z,13.20
2023-02-17T07:16:32.101Z,13.07
2023-02-17T07:19:20.015Z,7.40
2023-02-17T07:22:07.630Z,10.03
2023-02-17T07:24:55.126Z,8.07
2023-02-17T07:27:42.755Z,8.03
2023-02-17T07:30:30.560Z,9.97
2023-02-17T07:33:18.183Z,16.67
2023-02-17T07:36:15.558Z,12.77
2023-02-17T07:39:04.054Z,13.13
2023-02-17T07:41:51.730Z,15.30
2023-02-17T07:44:39.279Z,13.20
2023-02-17T07:47:26.723Z,16.57
2023-02-17T07:50:14.426Z,17.57
2023-02-17T07:53:01.965Z,12.50
2023-02-17T07:55:49.905Z,19.03
2023-02-17T07:58:40.748Z,8.30
2023-02-17T08:01:31.124Z,12.87
2023-02-17T08:04:18.870Z,14.60
2023-02-17T08:07:06.387Z,15.43
2023-02-17T08:10:12.594Z,14.90
2023-02-17T08:13:00.385Z,13.43
2023-02-17T08:15:47.940Z,10.60
2023-02-17T08:18:36.739Z,13.60
2023-02-17T08:21:27.234Z,15.80
2023-02-17T08:24:19.890Z,10.93
2023-02-17T08:27:07.481Z,10.33
2023-02-17T08:29:55.816Z,12.00
2023-02-17T08:32:47.947Z,20.97
2023-02-17T08:35:35.875Z,19.93
2023-02-17T08:38:23.961Z,12.27
2023-02-17T08:41:22.927Z,10.20
2023-02-17T08:44:16.084Z,14.87
2023-02-17T08:47:06.497Z,20.57
2023-02-17T08:49:54.935Z,10.47
2023-02-17T08:52:45.170Z,15.47
2023-02-17T08:55:47.333Z,12.97
2023-02-17T08:58:37.567Z,17.43
2023-02-17T09:01:25.363Z,15.90
2023-02-17T09:04:15.980Z,16.67
2023-02-17T09:07:03.730Z,13.37
2023-02-17T09:09:51.647Z,11.70
2023-02-17T09:12:39.337Z,12.87
2023-02-17T09:15:26.865Z,13.90
2023-02-17T09:18:14.499Z,16.57
2023-02-17T09:21:14.221Z,17.13
2023-02-17T09:24:01.895Z,9.87
2023-02-17T09:26:49.527Z,14.87
2023-02-17T09:29:40.838Z,9.87
2023-02-17T09:32:28.548Z,11.43
2023-02-17T09:35:19.053Z,13.27
2023-02-17T09:38:07.326Z,11.10
2023-02-17T09:40:55.465Z,9.20
2023-02-17T09:43:44.068Z,11.20
2023-02-17T09:46:49.713Z,18.70
2023-02-17T09:49:51.794Z,10.63
2023-02-17T09:53:01.088Z,15.53
2023-02-17T09:55:59.073Z,22.23
2023-02-17T09:59:20.359Z,13.13
2023-02-17T10:02:19.196Z,11.97
2023-02-17T10:05:11.024Z,12.23
2023-02-17T10:08:10.363Z,15.83
2023-02-17T10:11:15.051Z,14.90
2023-02-17T10:14:46.358Z,12.97
2023-02-17T10:18:05.266Z,24.17
2023-02-17T10:21:00.967Z,9.60
2023-02-17T10:23:48.720Z,18.13
2023-02-17T10:27:17.918Z,14.53
2023-02-17T10:30:17.195Z,12.30
2023-02-17T10:33:38.106Z,8.43
2023-02-17T10:37:01.382Z,13.87
2023-02-17T10:39:53.646Z,9.13
2023-02-17T10:42:41.575Z,13.37
2023-02-17T10:45:49.655Z,7.77
2023-02-17T10:48:54.823Z,8.73
2023-02-17T10:51:42.775Z,5.43
2023-02-17T10:54:51.464Z,4.60
2023-02-17T10:57:42.310Z,7.93
2023-02-17T11:00:29.897Z,5.83
2023-02-17T11:03:23.664Z,8.63
2023-02-17T11:06:22.983Z,3.77
2023-02-17T11:09:33.476Z,3.20
2023-02-17T11:12:50.032Z,4.33
2023-02-17T11:15:46.272Z,7.87
2023-02-17T11:18:40.773Z,5.23
2023-02-17T11:21:30.826Z,4.10
2023-02-17T11:24:18.837Z,2.40
2023-02-17T11:27:12.402Z,4.03
2023-02-17T11:30:15.986Z,2.47
2023-02-17T11:33:16.528Z,2.53
2023-02-17T11:36:08.009Z,11.47
2023-02-17T11:38:57.576Z,6.37
2023-02-17T11:41:45.546Z,8.23
2023-02-17T11:44:33.161Z,14.03
2023-02-17T11:47:47.324Z,2.63
2023-02-17T11:51:08.148Z,2.67
2023-02-17T11:54:44.893Z,4.37
2023-02-17T11:57:53.999Z,6.13
2023-02-17T12:01:07.394Z,5.33
2023-02-17T12:04:15.805Z,3.63
2023-02-17T12:07:51.362Z,5.20
2023-02-17T12:11:09.941Z,6.60
2023-02-17T12:14:17.211Z,5.57
2023-02-17T12:17:26.884Z,4.40
2023-02-17T12:20:49.934Z,8.33
2023-02-17T12:24:13.419Z,7.13
2023-02-17T12:27:15.760Z,4.10
2023-02-17T12:30:34.319Z,3.93
2023-02-17T12:33:55.564Z,6.57
2023-02-17T12:36:44.508Z,5.13
2023-02-17T12:40:23.425Z,7.40
2023-02-17T12:43:46.797Z,4.73
2023-02-17T12:46:44.660Z,3.80
2023-02-17T12:49:43.212Z,4.47
2023-02-17T12:52:41.433Z,4.33
2023-02-17T12:55:48.947Z,3.73
2023-02-17T12:58:36.768Z,4.47
2023-02-17T13:01:32.049Z,10.10
2023-02-17T13:04:25.080Z,5.37
2023-02-17T13:07:33.730Z,5.07
2023-02-17T13:10:27.166Z,5.40
2023-02-17T13:13:30.280Z,6.27
2023-02-17T13:16:18.046Z,8.00
2023-02-17T13:19:09.438Z,6.67
2023-02-17T13:22:00.133Z,8.40
2023-02-17T13:24:55.932Z,7.40
2023-02-17T13:27:43.451Z,5.47
2023-02-17T13:30:45.142Z,3.97
2023-02-17T13:33:41.289Z,5.47
2023-02-17T13:36:28.834Z,5.03
2023-02-17T13:39:28.712Z,3.80
2023-02-17T13:42:38.165Z,7.60
2023-02-17T13:45:57.470Z,4.93
2023-02-17T13:48:45.223Z,3.60
2023-02-17T13:51:34.381Z,3.83
2023-02-17T13:54:23.936Z,4.60
2023-02-17T13:57:32.365Z,4.27
2023-02-17T14:00:24.584Z,4.80
2023-02-17T14:03:42.008Z,6.90
2023-02-17T14:06:41.049Z,6.10
2023-02-17T14:09:33.250Z,4.13
2023-02-17T14:12:24.378Z,3.30
2023-02-17T14:15:26.242Z,3.77
2023-02-17T14:18:16.420Z,3.33
2023-02-17T14:21:26.657Z,4.30
2023-02-17T14:24:33.219Z,3.27
2023-02-17T14:27:21.064Z,4.20
2023-02-17T14:30:33.763Z,8.47
2023-02-17T14:33:25.687Z,5.43
2023-02-17T14:36:13.181Z,4.17
2023-02-17T14:39:02.537Z,3.63
2023-02-17T14:41:50.076Z,6.33
2023-02-17T14:44:37.562Z,8.67
2023-02-17T14:47:25.378Z,11.77
2023-02-17T14:50:13.769Z,8.60
2023-02-17T14:53:01.467Z,2.50
2023-02-17T14:55:58.380Z,4.40
2023-02-17T14:58:46.648Z,3.83
2023-02-17T15:01:34.233Z,7.30
2023-02-17T15:04:21.786Z,5.00
2023-02-17T15:07:16.396Z,3.13
2023-02-17T15:10:18.956Z,6.07
2023-02-17T15:13:07.048Z,7.03
2023-02-17T15:15:56.032Z,4.83
2023-02-17T15:18:43.763Z,6.13
2023-02-17T15:21:34.851Z,7.53
2023-02-17T15:24:31.201Z,3.47
2023-02-17T15:27:21.119Z,4.10
2023-02-17T15:30:21.251Z,3.67
2023-02-17T15:33:13.838Z,4.87
2023-02-17T15:36:01.609Z,10.90
2023-02-17T15:38:49.258Z,4.93
2023-02-17T15:41:37.208Z,6.70
2023-02-17T15:44:40.991Z,8.33
2023-02-17T15:47:29.429Z,3.63
2023-02-17T15:50:23.058Z,7.70
2023-02-17T15:53:10.720Z,7.60
2023-02-17T15:56:01.432Z,5.13
2023-02-17T15:58:51.318Z,9.87
2023-02-17T16:01:39.140Z,4.53
2023-02-17T16:04:27.092Z,5.50
2023-02-17T16:07:15.460Z,4.87
2023-02-17T16:10:05.066Z,5.30
2023-02-17T16:12:56.525Z,3.43
2023-02-17T16:15:45.276Z,2.70
2023-02-17T16:18:32.897Z,5.27
2023-02-17T16:21:20.556Z,2.80
2023-02-17T16:24:08.135Z,1.77
2023-02-17T16:26:56.525Z,2.87
2023-02-17T16:29:44.508Z,0.80
2023-02-17T16:32:34.797Z,9.60
2023-02-17T16:35:27.360Z,20.37
2023-02-17T16:38:23.575Z,2.77
2023-02-17T16:41:16.480Z,3.50
2023-02-17T16:44:04.737Z,1.40
2023-02-17T16:46:57.538Z,2.03
2023-02-17T16:49:48.203Z,4.13
2023-02-17T16:52:35.886Z,6.07
2023-02-17T16:55:28.580Z,2.40
2023-02-17T16:58:17.936Z,2.70
2023-02-17T17:01:05.728Z,9.63
2023-02-17T17:03:53.397Z,2.63
2023-02-17T17:06:50.769Z,3.73
2023-02-17T17:09:38.359Z,3.83
2023-02-17T17:12:25.960Z,2.80
2023-02-17T17:15:16.541Z,1.70
2023-02-17T17:18:08.723Z,2.67
2023-02-17T17:20:56.355Z,1.63
2023-02-17T17:23:46.621Z,1.40
2023-02-17T17:26:40.857Z,3.60
2023-02-17T17:29:28.446Z,4.13
2023-02-17T17:32:16.163Z,1.87
2023-02-17T17:35:04.003Z,8.47
2023-02-17T17:37:51.710Z,4.03
2023-02-17T17:40:53.426Z,2.30
2023-02-17T17:43:42.429Z,2.40
2023-02-17T17:46:35.853Z,14.93
2023-02-17T17:49:23.567Z,7.77
2023-02-17T17:52:14.562Z,2.63
2023-02-17T17:55:03.944Z,1.30
2023-02-17T17:57:53.957Z,8.60
2023-02-17T18:00:41.613Z,2.13
2023-02-17T18:03:29.131Z,2.07
2023-02-17T18:06:26.188Z,1.77
2023-02-17T18:09:31.320Z,1.30
2023-02-17T18:12:20.881Z,1.00
2023-02-17T18:15:09.686Z,3.20
2023-02-17T18:17:57.587Z,3.67
2023-02-17T18:20:45.706Z,1.83
2023-02-17T18:23:33.292Z,1.30
2023-02-17T18:26:21.112Z,2.40
2023-02-17T18:29:08.718Z,3.70
2023-02-17T18:31:57.858Z,1.30
2023-02-17T18:34:45.693Z,3.07
2023-02-17T18:37:34.076Z,3.20
2023-02-17T18:40:22.749Z,1.60
2023-02-17T18:43:10.467Z,1.73
2023-02-17T18:45:58.289Z,1.93
2023-02-17T18:48:46.800Z,1.63
2023-02-17T18:51:34.710Z,3.17
2023-02-17T18:54:22.296Z,3.57
2023-02-17T18:57:10.031Z,2.03
2023-02-17T18:59:57.583Z,4.00
2023-02-17T19:02:45.280Z,2.13
2023-02-17T19:05:32.995Z,2.90
2023-02-17T19:08:20.567Z,1.63
2023-02-17T19:11:08.852Z,2.77
2023-02-17T19:13:56.569Z,1.60
2023-02-17T19:16:44.288Z,2.33
2023-02-17T19:19:32.075Z,2.07
2023-02-17T19:22:20.040Z,2.40
2023-02-17T19:25:08.413Z,2.57
2023-02-17T19:27:55.949Z,2.07
2023-02-17T19:30:43.617Z,2.70
2023-02-17T19:33:31.169Z,9.63
2023-02-17T19:36:22.435Z,2.80
2023-02-17T19:39:09.989Z,3.20
2023-02-17T19:41:57.883Z,2.27
2023-02-17T19:44:45.602Z,3.63
2023-02-17T19:47:33.184Z,2.77
2023-02-17T19:50:20.956Z,2.27
2023-02-17T19:53:08.515Z,3.53
2023-02-17T19:55:56.271Z,2.87
2023-02-17T19:58:45.664Z,4.40
2023-02-17T20:01:35.154Z,1.73
2023-02-17T20:04:22.709Z,2.27
2023-02-17T20:07:10.328Z,4.00
2023-02-17T20:09:58.072Z,1.70
2023-02-17T20:12:46.173Z,1.97
2023-02-17T20:15:33.916Z,1.93
2023-02-17T20:18:21.466Z,2.53
2023-02-17T20:21:11.533Z,2.40
2023-02-17T20:23:59.917Z,4.27
2023-02-17T20:26:51.117Z,1.73
2023-02-17T20:29:38.843Z,4.37
2023-02-17T20:32:26.493Z,2.80
2023-02-17T20:35:14.867Z,1.70
2023-02-17T20:38:03.375Z,3.60
2023-02-17T20:40:51.272Z,1.30
2023-02-17T20:43:38.913Z,2.20
2023-02-17T20:46:29.638Z,1.47
2023-02-17T20:49:17.259Z,2.13
2023-02-17T20:52:05.857Z,1.00
2023-02-17T20:54:53.423Z,1.47
2023-02-17T20:57:42.171Z,1.17
2023-02-17T21:00:30.482Z,0.70
2023-02-17T21:03:18.195Z,0.53
2023-02-17T21:06:27.503Z,1.23
2023-02-17T21:09:18.512Z,1.57
2023-02-17T21:12:07.191Z,4.73
2023-02-17T21:14:54.819Z,1.10
2023-02-17T21:17:42.984Z,5.60
2023-02-17T21:20:30.452Z,4.30
2023-02-17T21:23:18.114Z,1.40
2023-02-17T21:26:10.719Z,1.97
2023-02-17T21:28:58.408Z,1.10
2023-02-17T21:31:45.969Z,1.43
2023-02-17T21:34:38.037Z,7.50
2023-02-17T21:37:25.622Z,1.30
2023-02-17T21:40:13.551Z,3.20
2023-02-17T21:43:19.569Z,1.10
2023-02-17T21:46:12.248Z,2.60
2023-02-17T21:49:01.595Z,1.10
2023-02-17T21:51:49.966Z,2.70
2023-02-17T21:54:37.723Z,1.00
2023-02-17T21:57:25.290Z,1.07
2023-02-17T22:00:14.164Z,5.00
2023-02-17T22:03:01.762Z,7.53
2023-02-17T22:05:49.881Z,0.90
2023-02-17T22:08:37.711Z,1.67
2023-02-17T22:11:34.622Z,0.80
2023-02-17T22:14:22.878Z,0.80
2023-02-17T22:17:10.435Z,0.73
2023-02-17T22:19:59.255Z,1.33
2023-02-17T22:22:46.894Z,1.03
2023-02-17T22:25:34.571Z,0.93
2023-02-17T22:28:22.165Z,0.97
2023-02-17T22:31:14.250Z,4.80
2023-02-17T22:34:06.906Z,4.03
2023-02-17T22:36:54.585Z,0.90
2023-02-17T22:39:42.182Z,1.77
2023-02-17T22:42:30.307Z,1.10
2023-02-17T22:45:18.001Z,1.20
2023-02-17T22:48:06.201Z,0.83
2023-02-17T22:50:53.934Z,1.10
2023-02-17T22:53:42.742Z,1.13
2023-02-17T22:56:31.069Z,1.17
2023-02-17T22:59:18.615Z,1.63
2023-02-17T23:02:06.335Z,1.80
2023-02-17T23:04:53.853Z,1.30
2023-02-17T23:07:41.763Z,1.80
2023-02-17T23:10:29.298Z,4.10
2023-02-17T23:13:17.873Z,1.23
2023-02-17T23:16:07.598Z,1.10
2023-02-17T23:18:56.680Z,1.40
2023-02-17T23:21:48.509Z,1.40
2023-02-17T23:24:36.509Z,1.57
2023-02-17T23:27:24.090Z,1.50
2023-02-17T23:30:21.990Z,1.33
2023-02-17T23:33:10.724Z,1.40
2023-02-17T23:35:58.319Z,1.37
2023-02-17T23:38:46.007Z,1.23
2023-02-17T23:41:36.310Z,1.60
2023-02-17T23:44:23.892Z,1.30
2023-02-17T23:47:11.427Z,2.57
2023-02-17T23:49:59.005Z,1.20
2023-02-17T23:52:46.718Z,1.87
2023-02-17T23:55:34.733Z,1.30
2023-02-17T23:58:22.277Z,1.50
